createdAt,value
2019-06-20T00:02:07.025Z,32.73
2019-06-20T00:04:55.223Z,33.30
2019-06-20T00:07:43.305Z,33.23
2019-06-20T00:13:40.554Z,35.97
2019-06-20T00:16:28.734Z,35.70
2019-06-20T00:19:16.874Z,36.70
2019-06-20T00:22:13.324Z,38.23
2019-06-20T00:25:02.913Z,37.17
2019-06-20T00:27:51.505Z,36.43
2019-06-20T00:30:32.314Z,36.23
2019-06-20T00:35:56.677Z,34.40
2019-06-20T00:38:37.994Z,36.47
2019-06-20T00:41:19.035Z,38.03
2019-06-20T00:43:59.576Z,36.13
2019-06-20T00:46:40.765Z,36.27
2019-06-20T00:49:21.655Z,37.50
2019-06-20T00:52:02.202Z,37.07
2019-06-20T00:54:43.266Z,34.57
2019-06-20T00:57:23.788Z,31.93
2019-06-20T01:00:05.116Z,31.83
2019-06-20T01:02:45.868Z,32.33
2019-06-20T01:05:27.210Z,28.83
2019-06-20T01:08:08.221Z,26.67
2019-06-20T01:10:51.634Z,24.20
2019-06-20T01:13:34.164Z,27.80
2019-06-20T01:16:14.961Z,26.50
2019-06-20T01:18:56.133Z,26.80
2019-06-20T01:21:37.430Z,28.87
2019-06-20T01:24:18.506Z,29.10
2019-06-20T01:26:59.490Z,29.73
2019-06-20T01:29:40.362Z,27.60
2019-06-20T01:32:21.172Z,23.70
2019-06-20T01:35:02.769Z,22.73
2019-06-20T01:37:43.296Z,22.80
2019-06-20T01:40:23.850Z,23.37
2019-06-20T01:43:04.892Z,24.67
2019-06-20T01:45:45.964Z,26.83
2019-06-20T01:51:06.183Z,25.23
2019-06-20T01:53:47.741Z,27.00
2019-06-20T01:56:29.187Z,25.90
2019-06-20T01:59:10.633Z,25.40
2019-06-20T02:01:51.983Z,26.57
2019-06-20T02:04:32.619Z,27.50
2019-06-20T02:07:13.665Z,25.83
2019-06-20T02:09:42.541Z,26.07
2019-06-20T02:12:11.442Z,26.27
2019-06-20T02:14:40.234Z,27.80
2019-06-20T02:17:28.390Z,27.80
2019-06-20T02:20:28.929Z,28.97
2019-06-20T02:23:17.067Z,30.73
2019-06-20T02:26:05.214Z,32.33
2019-06-20T02:28:53.353Z,34.00
2019-06-20T02:31:34.539Z,33.17
2019-06-20T02:34:15.821Z,35.50
2019-06-20T02:36:57.322Z,37.53
2019-06-20T02:39:38.079Z,37.40
2019-06-20T02:42:18.859Z,39.37
2019-06-20T02:44:59.703Z,40.07
2019-06-20T02:47:40.614Z,42.43
2019-06-20T02:50:21.547Z,43.47
2019-06-20T02:53:02.207Z,43.93
2019-06-20T02:55:43.159Z,48.67
2019-06-20T02:58:24.549Z,47.57
2019-06-20T03:01:05.401Z,47.87
2019-06-20T03:03:46.811Z,49.57
2019-06-20T03:06:28.027Z,49.23
2019-06-20T03:09:08.902Z,47.07
2019-06-20T03:11:49.681Z,46.27
2019-06-20T03:14:44.663Z,47.27
2019-06-20T03:17:13.539Z,45.97
2019-06-20T03:19:54.440Z,47.83
2019-06-20T03:22:35.398Z,48.80
2019-06-20T03:25:16.719Z,45.40
2019-06-20T03:27:57.514Z,44.17
2019-06-20T03:30:38.367Z,44.33
2019-06-20T03:33:19.519Z,42.73
2019-06-20T03:36:00.708Z,42.47
2019-06-20T03:38:41.795Z,40.53
2019-06-20T03:41:23.075Z,40.70
2019-06-20T03:44:04.344Z,39.87
2019-06-20T03:46:44.890Z,40.07
2019-06-20T03:49:26.190Z,39.73
2019-06-20T03:52:07.504Z,39.30
2019-06-20T03:54:48.623Z,36.00
2019-06-20T03:57:17.613Z,36.90
2019-06-20T04:00:05.808Z,34.53
2019-06-20T04:02:53.972Z,33.63
2019-06-20T04:05:42.017Z,33.47
2019-06-20T04:08:30.213Z,34.40
2019-06-20T04:14:08.642Z,31.37
2019-06-20T04:16:57.020Z,29.93
2019-06-20T04:19:45.194Z,30.47
2019-06-20T04:22:33.288Z,30.47
2019-06-20T04:25:21.379Z,29.13
2019-06-20T04:28:09.663Z,30.73
2019-06-20T04:30:57.839Z,29.90
2019-06-20T04:33:45.951Z,29.87
2019-06-20T04:36:34.152Z,26.93
2019-06-20T04:39:22.153Z,24.73
2019-06-20T04:42:10.320Z,27.67
2019-06-20T04:48:00.300Z,33.60
2019-06-20T04:50:41.049Z,32.87
2019-06-20T04:53:09.909Z,32.87
2019-06-20T04:55:57.960Z,29.00
2019-06-20T04:58:46.234Z,22.83
2019-06-20T05:01:34.297Z,25.87
2019-06-20T05:04:22.405Z,23.07
2019-06-20T05:10:22.514Z,21.00
2019-06-20T05:13:10.784Z,21.67
2019-06-20T05:15:58.931Z,20.47
2019-06-20T05:18:47.134Z,18.73
2019-06-20T05:21:35.244Z,20.40
2019-06-20T05:24:25.746Z,18.83
2019-06-20T05:27:15.436Z,17.30
2019-06-20T05:30:03.827Z,17.03
2019-06-20T05:32:52.132Z,16.03
2019-06-20T05:35:40.666Z,16.00
2019-06-20T05:38:31.637Z,16.10
2019-06-20T05:41:20.848Z,15.83
2019-06-20T05:56:03.818Z,16.20
2019-06-20T06:13:47.501Z,15.57
2019-06-20T06:16:38.805Z,14.93
2019-06-20T06:23:09.058Z,13.43
2019-06-20T06:28:53.369Z,11.77
2019-06-20T06:34:40.068Z,12.10
2019-06-20T06:37:28.441Z,13.00
2019-06-20T06:46:25.376Z,13.37
2019-06-20T06:49:06.729Z,13.43
2019-06-20T06:51:48.566Z,14.07
2019-06-20T06:54:33.474Z,14.03
2019-06-20T06:59:58.131Z,14.80
2019-06-20T07:02:39.658Z,15.10
2019-06-20T07:05:21.425Z,15.90
2019-06-20T07:08:03.007Z,18.17
2019-06-20T07:10:46.513Z,18.93
2019-06-20T07:16:15.689Z,21.13
2019-06-20T07:18:56.839Z,22.53
2019-06-20T07:21:38.005Z,23.60
2019-06-20T07:24:19.389Z,22.27
2019-06-20T07:27:03.235Z,23.40
2019-06-20T07:29:45.030Z,23.93
2019-06-20T07:32:17.386Z,23.93
2019-06-20T07:34:49.257Z,22.53
2019-06-20T07:37:37.490Z,22.77
2019-06-20T07:40:26.128Z,22.60
2019-06-20T07:43:33.879Z,22.33
2019-06-20T07:46:22.509Z,21.33
2019-06-20T07:52:10.783Z,20.27
2019-06-20T07:54:59.311Z,20.67
2019-06-20T07:58:25.729Z,21.40
2019-06-20T08:04:07.854Z,21.60
2019-06-20T08:06:59.511Z,23.17
2019-06-20T08:10:07.295Z,23.13
2019-06-20T08:12:56.362Z,25.97
2019-06-20T08:24:55.014Z,24.43
2019-06-20T08:28:04.436Z,25.43
2019-06-20T08:30:56.062Z,24.93
2019-06-20T08:33:38.505Z,21.40
2019-06-20T08:36:20.133Z,20.27
2019-06-20T08:39:02.631Z,20.40
2019-06-20T08:41:44.063Z,19.87
2019-06-20T08:44:26.622Z,19.17
2019-06-20T08:47:07.572Z,17.53
2019-06-20T08:49:48.647Z,18.33
2019-06-20T08:52:29.377Z,17.53
2019-06-20T08:55:01.446Z,16.73
2019-06-20T08:57:49.700Z,15.93
2019-06-20T09:00:38.199Z,14.33
2019-06-20T09:03:26.921Z,14.00
2019-06-20T09:06:15.211Z,14.70
2019-06-20T09:09:06.223Z,14.33
2019-06-20T09:11:55.391Z,11.40
2019-06-20T09:14:44.573Z,12.13
2019-06-20T09:17:32.915Z,13.23
2019-06-20T09:20:21.197Z,12.70
2019-06-20T09:23:09.657Z,7.97
2019-06-20T09:25:57.745Z,5.20
2019-06-20T09:29:05.454Z,3.77
2019-06-20T09:31:54.128Z,2.10
2019-06-20T09:34:42.611Z,1.97
2019-06-20T09:40:53.149Z,1.30
2019-06-20T09:44:04.761Z,1.80
2019-06-20T09:49:55.615Z,2.23
2019-06-20T09:52:35.880Z,2.70
2019-06-20T09:55:17.177Z,3.60
2019-06-20T09:58:06.734Z,3.10
2019-06-20T10:00:48.995Z,3.07
2019-06-20T10:03:30.754Z,3.20
2019-06-20T10:06:14.384Z,3.30
2019-06-20T10:11:45.521Z,2.70
2019-06-20T10:14:15.613Z,2.70
2019-06-20T10:19:48.295Z,2.33
2019-06-20T10:28:26.165Z,2.57
2019-06-20T10:31:14.448Z,2.40
2019-06-20T10:34:02.876Z,3.03
2019-06-20T10:36:52.379Z,2.93
2019-06-20T10:39:45.840Z,3.10
2019-06-20T10:42:37.553Z,3.50
2019-06-20T10:45:26.334Z,2.80
2019-06-20T10:48:14.773Z,2.97
2019-06-20T10:51:15.295Z,2.17
2019-06-20T10:53:57.015Z,2.93
2019-06-20T10:56:37.692Z,2.63
2019-06-20T10:59:18.530Z,2.43
2019-06-20T11:01:59.690Z,2.17
2019-06-20T11:04:44.084Z,1.93
2019-06-20T11:07:25.467Z,2.17
2019-06-20T11:10:07.081Z,1.60
2019-06-20T11:12:55.042Z,1.77
2019-06-20T11:15:29.540Z,1.30
2019-06-20T11:18:17.862Z,1.60
2019-06-20T11:21:06.067Z,1.50
2019-06-20T11:23:54.517Z,1.90
2019-06-20T11:26:43.136Z,1.80
2019-06-20T11:29:32.079Z,1.70
2019-06-20T11:32:26.315Z,1.90
2019-06-20T11:38:06.642Z,1.73
2019-06-20T11:40:39.442Z,1.63
2019-06-20T11:46:06.804Z,1.60
2019-06-20T11:48:55.529Z,2.13
2019-06-20T11:51:55.240Z,2.00
2019-06-20T12:00:17.475Z,2.33
2019-06-20T12:08:40.761Z,2.27
2019-06-20T12:11:21.675Z,2.57
2019-06-20T12:25:46.907Z,3.10
2019-06-20T12:31:21.801Z,3.27
2019-06-20T12:34:06.419Z,3.30
2019-06-20T12:36:54.686Z,3.40
2019-06-20T12:45:29.915Z,2.83
2019-06-20T12:59:41.394Z,4.30
2019-06-20T13:11:39.104Z,5.67
2019-06-20T13:30:17.293Z,5.00
2019-06-20T13:33:05.014Z,5.23
2019-06-20T13:35:53.305Z,5.90
2019-06-20T13:38:57.388Z,5.73
2019-06-20T13:41:36.773Z,7.57
2019-06-20T13:44:25.202Z,7.43
2019-06-20T13:47:14.048Z,7.97
2019-06-20T13:50:02.795Z,7.90
2019-06-20T13:52:46.448Z,7.40
2019-06-20T13:55:26.425Z,7.20
2019-06-20T13:58:08.085Z,7.10
2019-06-20T14:00:50.991Z,5.90
2019-06-20T14:06:25.241Z,7.50
2019-06-20T14:09:06.565Z,7.37
2019-06-20T14:11:47.525Z,7.43
2019-06-20T14:17:11.683Z,6.73
2019-06-20T14:40:21.112Z,8.23
2019-06-20T14:43:02.867Z,8.17
2019-06-20T14:45:37.992Z,8.43
2019-06-20T14:48:25.393Z,7.33
2019-06-20T14:54:10.866Z,8.53
2019-06-20T14:56:59.231Z,8.67
2019-06-20T15:39:44.314Z,9.90
2019-06-20T15:42:32.915Z,10.90
2019-06-20T15:45:21.323Z,11.43
2019-06-20T15:47:50.377Z,11.00
2019-06-20T15:50:38.828Z,11.70
2019-06-20T15:53:27.151Z,10.50
2019-06-20T15:56:15.390Z,9.63
2019-06-20T15:59:03.884Z,9.23
2019-06-20T16:01:52.503Z,7.77
2019-06-20T16:04:40.876Z,7.53
2019-06-20T16:07:29.193Z,7.10
2019-06-20T16:10:17.390Z,7.30
2019-06-20T16:13:05.739Z,6.83
2019-06-20T16:15:53.975Z,5.90
2019-06-20T16:18:42.255Z,6.00
2019-06-20T16:21:30.330Z,5.80
2019-06-20T16:24:37.522Z,5.30
2019-06-20T16:27:26.114Z,6.30
2019-06-20T16:30:14.385Z,6.27
2019-06-20T16:33:02.742Z,6.80
2019-06-20T16:35:51.229Z,6.40
2019-06-20T17:05:34.723Z,2.40
2019-06-20T17:22:43.900Z,2.63
2019-06-20T17:28:40.287Z,2.83
2019-06-20T17:34:49.960Z,3.20
2019-06-20T17:37:40.069Z,3.40
2019-06-20T17:40:28.647Z,3.73
2019-06-20T17:58:06.480Z,3.20
2019-06-20T18:12:30.126Z,3.20
2019-06-20T18:36:47.616Z,2.77
2019-06-20T19:02:32.731Z,2.97
2019-06-20T21:04:28.635Z,2.87
2019-06-20T21:06:57.771Z,3.07
2019-06-20T21:37:36.857Z,3.80
2019-06-20T21:40:46.753Z,3.43
2019-06-20T21:46:17.010Z,3.63
2019-06-20T21:49:21.429Z,3.93
2019-06-20T21:52:17.138Z,3.67
2019-06-20T21:55:28.437Z,3.50
2019-06-20T22:04:01.917Z,4.37
2019-06-20T22:09:17.100Z,4.17
2019-06-20T22:12:00.673Z,4.00
2019-06-20T22:14:42.732Z,4.17
2019-06-20T22:20:10.818Z,4.20
2019-06-20T22:28:29.226Z,3.67
2019-06-20T22:31:43.752Z,3.80
2019-06-20T22:42:39.526Z,3.43
2019-06-20T23:11:19.443Z,4.70
2019-06-20T23:14:01.033Z,4.13
2019-06-20T23:16:42.590Z,4.00
2019-06-20T23:19:24.960Z,4.43
2019-06-20T23:22:07.646Z,4.10
2019-06-20T23:24:51.083Z,3.87
2019-06-20T23:33:06.752Z,4.00
2019-06-20T23:35:55.442Z,3.80
2019-06-20T23:38:43.852Z,3.93
2019-06-20T23:41:33.946Z,4.20
2019-06-20T23:44:03.213Z,4.00
2019-06-20T23:46:51.976Z,4.07
2019-06-20T23:49:28.515Z,4.03
2019-06-20T23:52:03.994Z,4.43
2019-06-20T23:54:33.820Z,4.40
2019-06-20T23:57:25.499Z,4.40
